createdAt,value
2022-11-13T00:00:59.058Z,80.71
2022-11-13T00:03:30.533Z,80.46
2022-11-13T00:06:01.574Z,80.30
2022-11-13T00:08:29.475Z,79.93
2022-11-13T00:11:01.640Z,79.89
2022-11-13T00:13:30.660Z,79.74
2022-11-13T00:15:59.687Z,79.70
2022-11-13T00:18:30.342Z,79.58
2022-11-13T00:20:58.683Z,79.70
2022-11-13T00:23:26.360Z,79.56
2022-11-13T00:25:53.992Z,79.63
2022-11-13T00:28:21.629Z,79.81
2022-11-13T00:30:49.243Z,79.90
2022-11-13T00:33:37.985Z,80.13
2022-11-13T00:36:07.263Z,80.77
2022-11-13T00:38:35.300Z,81.87
2022-11-13T00:41:03.126Z,82.17
2022-11-13T00:43:30.798Z,82.52
2022-11-13T00:45:58.451Z,83.04
2022-11-13T00:48:26.476Z,83.11
2022-11-13T00:50:54.385Z,83.55
2022-11-13T00:53:23.488Z,83.58
2022-11-13T00:55:51.742Z,83.78
2022-11-13T00:58:19.643Z,84.08
2022-11-13T01:00:48.458Z,84.22
2022-11-13T01:03:17.865Z,84.64
2022-11-13T01:05:46.795Z,84.89
2022-11-13T01:08:15.897Z,84.79
2022-11-13T01:10:53.071Z,84.77
2022-11-13T01:13:21.314Z,84.80
2022-11-13T01:15:49.037Z,84.55
2022-11-13T01:18:16.684Z,84.37
2022-11-13T01:20:44.315Z,84.33
2022-11-13T01:23:12.814Z,84.19
2022-11-13T01:25:40.483Z,83.82
2022-11-13T01:28:09.566Z,83.46
2022-11-13T01:30:37.163Z,83.45
2022-11-13T01:33:04.986Z,83.44
2022-11-13T01:35:33.479Z,83.67
2022-11-13T01:38:01.313Z,83.52
2022-11-13T01:40:28.922Z,83.26
2022-11-13T01:42:56.554Z,82.84
2022-11-13T01:46:01.651Z,82.79
2022-11-13T01:48:35.838Z,82.41
2022-11-13T01:51:04.741Z,82.18
2022-11-13T01:53:32.875Z,82.18
2022-11-13T01:56:00.490Z,82.49
2022-11-13T01:58:29.002Z,82.14
2022-11-13T02:00:56.978Z,82.02
2022-11-13T02:03:24.706Z,81.95
2022-11-13T02:05:54.555Z,82.12
2022-11-13T02:08:22.320Z,82.00
2022-11-13T02:10:50.298Z,82.28
2022-11-13T02:13:18.427Z,81.75
2022-11-13T02:15:46.851Z,81.76
2022-11-13T02:18:14.923Z,81.84
2022-11-13T02:20:46.747Z,81.42
2022-11-13T02:23:23.766Z,81.30
2022-11-13T02:25:54.349Z,81.02
2022-11-13T02:28:22.175Z,81.08
2022-11-13T02:30:49.920Z,80.71
2022-11-13T02:33:26.110Z,80.78
2022-11-13T02:35:54.450Z,80.60
2022-11-13T02:38:22.104Z,80.80
2022-11-13T02:40:49.776Z,81.25
2022-11-13T02:43:18.983Z,80.78
2022-11-13T02:45:46.662Z,81.10
2022-11-13T02:48:14.286Z,81.12
2022-11-13T02:50:42.410Z,80.89
2022-11-13T02:53:10.104Z,81.08
2022-11-13T02:55:37.887Z,81.55
2022-11-13T02:58:05.858Z,81.71
2022-11-13T03:00:34.914Z,81.71
2022-11-13T03:03:02.587Z,81.69
2022-11-13T03:05:30.311Z,81.73
2022-11-13T03:07:57.954Z,81.82
2022-11-13T03:10:25.616Z,81.57
2022-11-13T03:12:53.314Z,81.61
2022-11-13T03:15:21.170Z,81.66
2022-11-13T03:17:50.466Z,81.67
2022-11-13T03:20:18.465Z,81.64
2022-11-13T03:22:46.096Z,81.40
2022-11-13T03:25:13.955Z,81.78
2022-11-13T03:27:41.704Z,81.76
2022-11-13T03:30:10.701Z,81.36
2022-11-13T03:32:38.338Z,81.52
2022-11-13T03:35:09.195Z,81.98
2022-11-13T03:37:36.821Z,82.08
2022-11-13T03:40:05.042Z,82.21
2022-11-13T03:42:32.769Z,82.02
2022-11-13T03:45:00.405Z,81.92
2022-11-13T03:47:28.042Z,81.86
2022-11-13T03:49:55.875Z,82.21
2022-11-13T03:52:24.946Z,82.15
2022-11-13T03:54:52.631Z,82.18
2022-11-13T03:57:20.939Z,82.70
2022-11-13T03:59:48.853Z,83.00
2022-11-13T04:02:16.495Z,82.92
2022-11-13T04:04:44.856Z,83.36
2022-11-13T04:07:12.917Z,83.55
2022-11-13T04:09:42.131Z,83.54
2022-11-13T04:12:09.806Z,83.47
2022-11-13T04:14:37.805Z,83.45
2022-11-13T04:17:05.574Z,83.57
2022-11-13T04:19:33.426Z,83.32
2022-11-13T04:22:01.385Z,83.41
2022-11-13T04:24:29.047Z,83.34
2022-11-13T04:26:58.347Z,83.57
2022-11-13T04:29:26.039Z,83.42
2022-11-13T04:31:53.691Z,83.27
2022-11-13T04:34:21.477Z,83.47
2022-11-13T04:36:49.138Z,83.38
2022-11-13T04:39:16.770Z,83.41
2022-11-13T04:42:02.089Z,83.31
2022-11-13T04:44:31.198Z,83.96
2022-11-13T04:46:58.894Z,84.22
2022-11-13T04:49:26.657Z,84.22
2022-11-13T04:51:54.584Z,84.01
2022-11-13T04:54:28.389Z,84.47
2022-11-13T04:56:56.467Z,84.68
2022-11-13T04:59:24.569Z,84.62
2022-11-13T05:01:55.659Z,84.88
2022-11-13T05:04:23.616Z,84.81
2022-11-13T05:06:51.303Z,84.82
2022-11-13T05:09:18.995Z,84.93
2022-11-13T05:11:46.967Z,85.14
2022-11-13T05:14:14.937Z,85.02
2022-11-13T05:16:42.687Z,84.80
2022-11-13T05:19:11.810Z,84.60
2022-11-13T05:21:40.225Z,84.32
2022-11-13T05:24:10.840Z,84.11
2022-11-13T05:26:38.732Z,84.07
2022-11-13T05:29:06.637Z,83.93
2022-11-13T05:31:34.286Z,84.43
2022-11-13T05:34:05.947Z,84.49
2022-11-13T05:36:35.724Z,84.87
2022-11-13T05:39:03.584Z,84.79
2022-11-13T05:41:31.256Z,84.59
2022-11-13T05:43:59.927Z,85.11
2022-11-13T05:46:29.028Z,84.83
2022-11-13T05:48:57.876Z,85.11
2022-11-13T05:51:27.317Z,84.95
2022-11-13T05:53:56.840Z,84.92
2022-11-13T05:56:26.824Z,84.80
2022-11-13T05:58:55.711Z,84.61
2022-11-13T06:01:26.507Z,84.64
2022-11-13T06:03:55.846Z,84.66
2022-11-13T06:06:24.758Z,84.93
2022-11-13T06:08:53.578Z,84.72
2022-11-13T06:11:25.357Z,84.90
2022-11-13T06:13:54.244Z,85.05
2022-11-13T06:16:24.116Z,85.00
2022-11-13T06:18:52.254Z,85.42
2022-11-13T06:21:21.658Z,85.28
2022-11-13T06:23:49.618Z,85.55
2022-11-13T06:26:19.114Z,85.37
2022-11-13T06:28:48.647Z,85.85
2022-11-13T06:31:18.766Z,86.52
2022-11-13T06:33:46.857Z,86.50
2022-11-13T06:36:16.260Z,86.40
2022-11-13T06:38:44.239Z,85.86
2022-11-13T06:41:14.438Z,85.79
2022-11-13T06:43:42.466Z,85.83
2022-11-13T06:46:14.648Z,85.66
2022-11-13T06:48:42.478Z,85.43
2022-11-13T06:51:16.377Z,85.58
2022-11-13T06:53:44.141Z,85.80
2022-11-13T06:56:12.470Z,86.06
2022-11-13T06:58:40.601Z,86.08
2022-11-13T07:01:09.126Z,86.26
2022-11-13T07:03:38.658Z,86.36
2022-11-13T07:06:08.531Z,86.33
2022-11-13T07:08:37.096Z,86.62
2022-11-13T07:11:04.792Z,86.69
2022-11-13T07:13:32.570Z,87.30
2022-11-13T07:16:09.349Z,87.52
2022-11-13T07:18:44.894Z,87.88
2022-11-13T07:21:13.946Z,87.43
2022-11-13T07:23:43.723Z,87.49
2022-11-13T07:26:12.369Z,87.48
2022-11-13T07:28:40.480Z,87.44
2022-11-13T07:31:08.715Z,87.48
2022-11-13T07:33:36.430Z,86.89
2022-11-13T07:36:06.567Z,87.30
2022-11-13T07:38:34.194Z,87.15
2022-11-13T07:41:02.429Z,86.89
2022-11-13T07:43:30.609Z,87.04
2022-11-13T07:45:59.164Z,86.69
2022-11-13T07:48:28.632Z,86.59
2022-11-13T07:51:00.503Z,85.84
2022-11-13T07:53:29.770Z,86.29
2022-11-13T07:55:57.487Z,86.06
2022-11-13T07:58:25.524Z,85.59
2022-11-13T08:00:53.635Z,85.68
2022-11-13T08:03:21.728Z,85.65
2022-11-13T08:05:49.487Z,85.43
2022-11-13T08:08:17.454Z,85.39
2022-11-13T08:10:47.174Z,85.39
2022-11-13T08:13:14.946Z,85.16
2022-11-13T08:15:43.065Z,84.74
2022-11-13T08:18:10.921Z,84.58
2022-11-13T08:20:38.771Z,84.51
2022-11-13T08:23:06.786Z,83.96
2022-11-13T08:25:36.654Z,84.85
2022-11-13T08:28:10.125Z,84.66
2022-11-13T08:30:40.776Z,84.79
2022-11-13T08:33:08.664Z,84.79
2022-11-13T08:35:36.500Z,84.83
2022-11-13T08:38:05.564Z,84.77
2022-11-13T08:40:33.892Z,83.77
2022-11-13T08:43:01.989Z,84.11
2022-11-13T08:45:31.934Z,83.79
2022-11-13T08:48:01.463Z,84.04
2022-11-13T08:50:29.631Z,84.05
2022-11-13T08:53:01.164Z,83.94
2022-11-13T08:55:29.159Z,84.24
2022-11-13T08:57:59.604Z,84.46
2022-11-13T09:00:28.904Z,84.61
2022-11-13T09:03:02.299Z,84.36
2022-11-13T09:05:34.228Z,84.24
2022-11-13T09:08:07.440Z,84.00
2022-11-13T09:10:37.222Z,83.73
2022-11-13T09:13:14.632Z,84.04
2022-11-13T09:15:42.607Z,84.56
2022-11-13T09:18:14.005Z,84.77
2022-11-13T09:20:44.441Z,84.86
2022-11-13T09:23:12.130Z,83.75
2022-11-13T09:25:40.081Z,83.32
2022-11-13T09:28:11.614Z,82.51
2022-11-13T09:30:40.792Z,82.24
2022-11-13T09:33:09.115Z,80.06
2022-11-13T09:35:39.187Z,80.00
2022-11-13T09:38:11.547Z,80.01
2022-11-13T09:40:44.086Z,79.00
2022-11-13T09:43:14.807Z,79.20
2022-11-13T09:45:42.889Z,79.09
2022-11-13T09:48:29.244Z,78.56
2022-11-13T09:51:01.059Z,78.24
2022-11-13T09:53:31.512Z,78.59
2022-11-13T09:56:06.315Z,78.37
2022-11-13T09:59:01.063Z,77.80
2022-11-13T10:01:34.456Z,77.04
2022-11-13T10:04:08.886Z,77.33
2022-11-13T10:06:54.312Z,77.77
2022-11-13T10:09:26.604Z,77.77
2022-11-13T10:11:55.584Z,77.13
2022-11-13T10:14:33.581Z,77.36
2022-11-13T10:17:05.738Z,77.82
2022-11-13T10:19:38.941Z,77.24
2022-11-13T10:22:32.154Z,77.25
2022-11-13T10:25:08.278Z,77.68
2022-11-13T10:27:46.321Z,77.10
2022-11-13T10:30:16.035Z,77.10
2022-11-13T10:32:44.973Z,77.14
2022-11-13T10:35:24.698Z,77.46
2022-11-13T10:38:04.703Z,77.20
2022-11-13T10:40:36.818Z,77.11
2022-11-13T10:43:13.283Z,76.88
2022-11-13T10:45:41.635Z,77.45
2022-11-13T10:48:20.882Z,77.31
2022-11-13T10:50:55.520Z,77.69
2022-11-13T10:53:28.763Z,77.42
2022-11-13T10:55:58.804Z,77.15
2022-11-13T10:58:26.984Z,77.31
2022-11-13T11:00:55.720Z,77.67
2022-11-13T11:03:25.234Z,77.54
2022-11-13T11:05:54.602Z,76.89
2022-11-13T11:08:27.823Z,77.68
2022-11-13T11:11:16.381Z,77.56
2022-11-13T11:13:44.733Z,77.40
2022-11-13T11:16:18.149Z,77.40
2022-11-13T11:18:54.109Z,77.45
2022-11-13T11:21:24.710Z,77.60
2022-11-13T11:23:58.443Z,77.57
2022-11-13T11:26:31.553Z,77.70
2022-11-13T11:29:07.956Z,77.77
2022-11-13T11:31:39.263Z,78.03
2022-11-13T11:34:18.158Z,77.54
2022-11-13T11:36:51.363Z,77.47
2022-11-13T11:39:29.298Z,77.80
2022-11-13T11:42:02.168Z,77.70
2022-11-13T11:44:33.594Z,78.02
2022-11-13T11:47:01.484Z,78.06
2022-11-13T11:49:29.292Z,77.88
2022-11-13T11:52:06.179Z,77.68
2022-11-13T11:54:42.131Z,77.70
2022-11-13T11:57:23.538Z,77.42
2022-11-13T12:00:08.342Z,77.66
2022-11-13T12:02:57.309Z,77.46
2022-11-13T12:05:40.250Z,77.59
2022-11-13T12:08:16.334Z,76.99
2022-11-13T12:10:52.884Z,76.93
2022-11-13T12:13:29.735Z,76.89
2022-11-13T12:16:05.952Z,76.85
2022-11-13T12:18:40.679Z,76.28
2022-11-13T12:21:23.572Z,76.52
2022-11-13T12:24:02.709Z,76.41
2022-11-13T12:26:38.557Z,76.75
2022-11-13T12:29:14.254Z,76.49
2022-11-13T12:31:52.759Z,76.40
2022-11-13T12:34:25.925Z,76.12
2022-11-13T12:36:54.801Z,76.47
2022-11-13T12:39:33.659Z,75.93
2022-11-13T12:42:07.649Z,75.61
2022-11-13T12:44:43.963Z,75.91
2022-11-13T12:47:12.031Z,75.89
2022-11-13T12:49:39.966Z,75.96
2022-11-13T12:52:19.330Z,76.10
2022-11-13T12:54:47.001Z,75.63
2022-11-13T12:57:25.817Z,75.71
2022-11-13T13:00:01.326Z,75.96
2022-11-13T13:02:40.571Z,75.94
2022-11-13T13:05:17.963Z,76.22
2022-11-13T13:08:04.982Z,75.80
2022-11-13T13:10:42.365Z,76.02
2022-11-13T13:13:22.622Z,75.90
2022-11-13T13:15:56.779Z,75.60
2022-11-13T13:18:30.541Z,75.38
2022-11-13T13:21:08.400Z,75.38
2022-11-13T13:23:38.958Z,75.61
2022-11-13T13:26:14.317Z,75.82
2022-11-13T13:28:44.950Z,76.12
2022-11-13T13:31:33.941Z,75.69
2022-11-13T13:34:18.718Z,75.54
2022-11-13T13:36:53.969Z,75.64
2022-11-13T13:39:38.966Z,75.57
2022-11-13T13:42:22.190Z,75.52
2022-11-13T13:45:14.480Z,75.66
2022-11-13T13:47:45.967Z,75.85
2022-11-13T13:50:17.023Z,75.48
2022-11-13T13:52:48.918Z,75.77
2022-11-13T13:55:26.126Z,75.68
2022-11-13T13:57:54.288Z,75.34
2022-11-13T14:00:26.133Z,75.45
2022-11-13T14:02:55.006Z,75.01
2022-11-13T14:05:29.465Z,75.06
2022-11-13T14:07:58.979Z,75.03
2022-11-13T14:10:29.102Z,75.19
2022-11-13T14:12:58.151Z,75.52
2022-11-13T14:15:31.820Z,75.34
2022-11-13T14:18:08.128Z,75.59
2022-11-13T14:20:43.295Z,75.37
2022-11-13T14:23:13.951Z,75.25
2022-11-13T14:25:42.363Z,75.08
2022-11-13T14:28:16.249Z,75.31
2022-11-13T14:30:46.378Z,75.36
2022-11-13T14:33:18.229Z,75.20
2022-11-13T14:35:52.485Z,75.17
2022-11-13T14:38:23.445Z,75.20
2022-11-13T14:40:51.660Z,75.38
2022-11-13T14:43:23.850Z,75.08
2022-11-13T14:45:57.927Z,75.08
2022-11-13T14:48:27.578Z,74.90
2022-11-13T14:50:56.773Z,74.94
2022-11-13T14:53:30.092Z,75.15
2022-11-13T14:56:01.443Z,75.01
2022-11-13T14:58:31.517Z,75.29
2022-11-13T15:01:14.079Z,75.63
2022-11-13T15:03:42.335Z,75.75
2022-11-13T15:06:15.548Z,76.27
2022-11-13T15:08:44.218Z,76.38
2022-11-13T15:11:14.791Z,76.47
2022-11-13T15:13:43.067Z,76.41
2022-11-13T15:16:16.320Z,76.70
2022-11-13T15:18:47.824Z,77.05
2022-11-13T15:21:20.328Z,76.71
2022-11-13T15:23:48.259Z,76.54
2022-11-13T15:26:16.279Z,76.60
2022-11-13T15:28:44.554Z,76.71
2022-11-13T15:31:19.729Z,76.38
2022-11-13T15:33:48.245Z,76.33
2022-11-13T15:36:17.097Z,76.22
2022-11-13T15:38:45.558Z,76.54
2022-11-13T15:41:16.807Z,76.75
2022-11-13T15:43:48.013Z,76.99
2022-11-13T15:46:24.763Z,77.10
2022-11-13T15:48:57.949Z,77.45
2022-11-13T15:51:32.820Z,77.73
2022-11-13T15:54:03.099Z,77.95
2022-11-13T15:56:31.387Z,78.51
2022-11-13T15:59:01.501Z,78.72
2022-11-13T16:01:32.951Z,78.65
2022-11-13T16:04:02.466Z,78.38
2022-11-13T16:06:34.014Z,78.21
2022-11-13T16:09:01.958Z,78.14
2022-11-13T16:11:32.365Z,78.17
2022-11-13T16:14:00.487Z,78.19
2022-11-13T16:16:34.444Z,78.09
2022-11-13T16:19:04.918Z,78.05
2022-11-13T16:21:32.836Z,78.09
2022-11-13T16:24:00.544Z,78.21
2022-11-13T16:26:28.319Z,78.56
2022-11-13T16:31:45.572Z,78.88
2022-11-13T16:34:13.668Z,79.11
2022-11-13T16:36:41.540Z,79.19
2022-11-13T16:39:12.355Z,79.30
2022-11-13T16:41:39.983Z,79.48
2022-11-13T16:44:07.742Z,79.34
2022-11-13T16:46:36.985Z,79.08
2022-11-13T16:49:06.004Z,79.21
2022-11-13T16:51:33.691Z,79.17
2022-11-13T16:54:01.314Z,79.19
2022-11-13T16:56:30.638Z,79.70
2022-11-13T16:58:59.515Z,79.79
2022-11-13T17:01:28.170Z,79.51
2022-11-13T17:03:55.911Z,79.54
2022-11-13T17:06:29.159Z,79.25
2022-11-13T17:08:58.505Z,79.52
2022-11-13T17:11:27.827Z,79.70
2022-11-13T17:13:58.320Z,79.67
2022-11-13T17:16:27.674Z,79.70
2022-11-13T17:18:55.716Z,79.58
2022-11-13T17:21:24.848Z,79.63
2022-11-13T17:23:56.947Z,79.37
2022-11-13T17:26:24.757Z,79.60
2022-11-13T17:28:53.507Z,79.63
2022-11-13T17:31:21.859Z,79.62
2022-11-13T17:33:51.743Z,79.69
2022-11-13T17:36:19.684Z,79.81
2022-11-13T17:38:47.297Z,79.92
2022-11-13T17:41:41.665Z,80.12
2022-11-13T17:44:12.070Z,80.07
2022-11-13T17:46:39.842Z,79.84
2022-11-13T17:49:08.434Z,79.94
2022-11-13T17:51:36.246Z,80.00
2022-11-13T17:54:03.935Z,80.64
2022-11-13T17:56:35.322Z,80.37
2022-11-13T17:59:03.583Z,80.30
2022-11-13T18:01:36.874Z,80.14
2022-11-13T18:04:06.804Z,80.43
2022-11-13T18:06:34.444Z,81.06
2022-11-13T18:09:02.163Z,80.98
2022-11-13T18:11:30.826Z,81.17
2022-11-13T18:14:00.017Z,81.27
2022-11-13T18:16:29.551Z,80.92
2022-11-13T18:19:00.611Z,80.78
2022-11-13T18:21:30.359Z,80.79
2022-11-13T18:24:00.003Z,80.94
2022-11-13T18:26:29.261Z,80.79
2022-11-13T18:28:57.058Z,80.37
2022-11-13T18:31:29.680Z,80.09
2022-11-13T18:33:59.303Z,79.86
2022-11-13T18:36:27.075Z,79.96
2022-11-13T18:38:54.848Z,80.13
2022-11-13T18:41:24.460Z,79.97
2022-11-13T18:43:53.186Z,79.95
2022-11-13T18:46:22.612Z,79.99
2022-11-13T18:48:51.880Z,80.58
2022-11-13T18:51:21.418Z,80.99
2022-11-13T18:53:50.122Z,81.32
2022-11-13T18:56:20.791Z,81.34
2022-11-13T18:58:49.557Z,81.33
2022-11-13T19:01:22.581Z,81.37
2022-11-13T19:04:21.535Z,81.62
2022-11-13T19:06:43.229Z,81.60
2022-11-13T19:09:16.747Z,81.82
2022-11-13T19:11:45.589Z,81.80
2022-11-13T19:14:15.407Z,81.77
2022-11-13T19:16:44.278Z,81.59
2022-11-13T19:19:18.968Z,81.35
2022-11-13T19:21:49.149Z,81.64
2022-11-13T19:24:20.483Z,81.37
2022-11-13T19:26:48.113Z,81.25
2022-11-13T19:29:16.383Z,81.26
2022-11-13T19:31:46.532Z,80.98
2022-11-13T19:34:14.538Z,81.08
2022-11-13T19:36:55.385Z,80.88
2022-11-13T19:39:23.963Z,81.90
2022-11-13T19:41:51.718Z,81.85
2022-11-13T19:44:21.649Z,82.08
2022-11-13T19:46:51.674Z,82.33
2022-11-13T19:49:20.883Z,82.24
2022-11-13T19:51:50.189Z,81.44
2022-11-13T19:54:22.007Z,81.61
2022-11-13T19:56:50.266Z,81.60
2022-11-13T19:59:18.024Z,81.86
2022-11-13T20:01:46.697Z,81.60
2022-11-13T20:04:15.570Z,81.61
2022-11-13T20:06:52.152Z,81.31
2022-11-13T20:09:30.638Z,81.13
2022-11-13T20:11:58.738Z,81.06
2022-11-13T20:14:26.601Z,80.85
2022-11-13T20:16:54.918Z,81.17
2022-11-13T20:19:23.059Z,81.45
2022-11-13T20:21:51.395Z,81.47
2022-11-13T20:27:26.691Z,81.91
2022-11-13T20:29:57.413Z,82.27
2022-11-13T20:32:26.654Z,82.82
2022-11-13T20:34:55.247Z,83.16
2022-11-13T20:37:29.012Z,82.93
2022-11-13T20:39:58.511Z,83.15
2022-11-13T20:42:29.564Z,83.45
2022-11-13T20:45:00.971Z,83.57
2022-11-13T20:47:29.628Z,83.73
2022-11-13T20:49:58.099Z,83.88
2022-11-13T20:52:28.017Z,83.73
2022-11-13T20:54:56.418Z,83.72
2022-11-13T20:57:25.536Z,83.62
2022-11-13T20:59:53.824Z,83.24
2022-11-13T21:02:22.695Z,83.31
2022-11-13T21:04:52.465Z,83.25
2022-11-13T21:07:20.539Z,83.67
2022-11-13T21:09:50.020Z,83.48
2022-11-13T21:12:17.906Z,83.50
2022-11-13T21:14:47.109Z,83.50
2022-11-13T21:17:17.522Z,83.18
2022-11-13T21:19:45.205Z,83.07
2022-11-13T21:22:13.674Z,83.07
2022-11-13T21:24:41.850Z,82.88
2022-11-13T21:27:10.047Z,82.83
2022-11-13T21:29:37.885Z,83.10
2022-11-13T21:32:07.370Z,82.98
2022-11-13T21:34:35.053Z,83.02
2022-11-13T21:37:02.833Z,82.73
2022-11-13T21:39:30.964Z,82.37
2022-11-13T21:41:59.223Z,82.24
2022-11-13T21:44:26.855Z,82.47
2022-11-13T21:46:55.465Z,82.64
2022-11-13T21:49:25.159Z,82.73
2022-11-13T21:51:53.898Z,82.39
2022-11-13T21:54:23.863Z,82.81
2022-11-13T21:56:51.522Z,82.51
2022-11-13T21:59:19.548Z,82.55
2022-11-13T22:01:47.206Z,82.68
2022-11-13T22:04:14.943Z,82.17
2022-11-13T22:06:50.202Z,82.00
2022-11-13T22:09:19.744Z,81.44
2022-11-13T22:11:47.681Z,81.08
2022-11-13T22:14:15.678Z,81.71
2022-11-13T22:16:46.347Z,81.70
2022-11-13T22:19:15.989Z,81.87
2022-11-13T22:21:44.645Z,82.05
2022-11-13T22:24:14.823Z,81.91
2022-11-13T22:26:45.222Z,81.66
2022-11-13T22:29:13.678Z,81.68
2022-11-13T22:31:41.387Z,81.55
2022-11-13T22:34:09.120Z,81.91
2022-11-13T22:36:37.794Z,82.15
2022-11-13T22:39:06.408Z,82.15
2022-11-13T22:41:36.582Z,82.10
2022-11-13T22:44:06.789Z,82.14
2022-11-13T22:46:36.186Z,82.31
2022-11-13T22:49:06.639Z,82.21
2022-11-13T22:51:37.894Z,82.01
2022-11-13T22:54:07.105Z,81.95
2022-11-13T22:56:37.166Z,81.79
2022-11-13T22:59:06.465Z,81.50
2022-11-13T23:01:35.924Z,81.04
2022-11-13T23:04:05.357Z,80.88
2022-11-13T23:06:34.505Z,81.10
2022-11-13T23:09:03.620Z,81.49
2022-11-13T23:11:33.630Z,82.10
2022-11-13T23:14:05.689Z,82.26
2022-11-13T23:16:34.383Z,82.56
2022-11-13T23:19:02.762Z,82.38
2022-11-13T23:21:31.087Z,83.07
2022-11-13T23:23:58.828Z,82.84
2022-11-13T23:26:27.601Z,82.82
2022-11-13T23:28:55.362Z,82.64
2022-11-13T23:31:24.530Z,82.70
2022-11-13T23:33:52.202Z,82.54
2022-11-13T23:36:20.307Z,82.38
2022-11-13T23:38:47.989Z,82.12
2022-11-13T23:41:15.979Z,82.38
2022-11-13T23:46:32.580Z,82.83
2022-11-13T23:49:00.234Z,83.06
2022-11-13T23:51:27.903Z,83.01
2022-11-13T23:53:55.607Z,83.30
2022-11-13T23:56:23.287Z,82.85
2022-11-13T23:58:52.966Z,83.04
